DRI-NNSC Building Weather observations

Data are for 10 minute period ending at time listed.
 Day   Time   Solar   Ave.   Ave.  Ave.  Vector  Max.   Baro.   Total    
  of    of     Rad.   Air    Rel.  Wind   Wind   Wind  Press.  Precip.   
Year   Day            Temp.  Hum.  Speed  Dir.   Gust                    
2015   (PST)  Kw/m2    F      %     mph   deg.    mph    mb.     in.     
-------------------------------------------------------------------------
 239    6:50   0.18   66.4    26    1.1    69      3   855.5    0.00 
 239    7:00   0.11   65.4    28    1.5   209      3   855.6    0.00 
 239    7:10   0.08   64.3    29    0.4   250      1   855.7    0.00 
 239    7:20   0.08   64.8    29    0.3   345      1   855.7    0.00 
 239    7:30   0.12   65.6    28    0.0     0      0   855.6    0.00 
 239    7:40   0.18   66.8    28    1.2    54      3   855.6    0.00 
 239    7:50   0.33   68.1    26    1.9    69      4   855.6    0.00 
 239    8:00   0.36   69.9    24    1.1   100      2   855.7    0.00 
 239    8:10   0.42   71.3    22    0.8   149      3   855.6    0.00 
 239    8:20   0.46   72.6    22    0.9   164      2   855.6    0.00 
 239    8:30   0.50   73.5    20    1.6   148      4   855.5    0.00 
 239    8:40   0.54   74.0    20    1.8   156      4   855.5    0.00 
 239    8:50   0.58   74.2    21    2.3   138      5   855.5    0.00 
 239    9:00   0.59   74.8    21    3.3   108      6   855.5    0.00 
 239    9:10   0.61   75.0    21    2.8   114      6   855.5    0.00 
 239    9:20   0.64   76.0    19    3.0   132      6   855.5    0.00 
 239    9:30   0.67   76.9    18    2.6   113      5   855.5    0.00 
 239    9:40   0.69   78.0    18    2.7   144      5   855.4    0.00 
 239    9:50   0.71   79.4    17    1.6   167      5   855.4    0.00 
 239   10:00   0.70   80.4    17    3.3   166      6   855.3    0.00 
 239   10:10   0.76   80.2    17    3.1   141      8   855.3    0.00 
 239   10:20   0.75   81.7    17    2.7   148      7   855.2    0.00 
 239   10:30   0.79   82.3    18    2.0   150      6   855.2    0.00 
 239   10:40   0.81   83.3    18    2.6   160      7   855.1    0.00 
 239   10:50   0.82   82.1    20    4.7   130     10   855.0    0.00 
 239   11:00   0.83   82.6    19    5.1   129      9   854.9    0.00 
 239   11:10   0.85   82.3    19    6.3   102     11   854.8    0.00 
 239   11:20   0.86   83.4    18    6.4   127     12   854.7    0.00 
 239   11:30   0.87   83.0    18    6.8   120     13   854.6    0.00 
 239   11:40   0.88   84.2    18    5.5   128     12   854.4    0.00 
 239   11:50   0.88   84.2    18    6.0   227     12   854.3    0.00 
 239   12:00   0.90   83.7    18    4.8   324     11   854.2    0.00 
 239   12:10   0.89   84.3    17    4.1   315      9   854.1    0.00 
 239   12:20   0.54   85.1    17    4.9   174      9   853.9    0.00 
 239   12:30   0.86   85.3    17    2.2   206     10   853.8    0.00 
 239   12:40   0.94   86.7    16    3.6   178     10   853.7    0.00 
 239   12:50   0.51   85.6    16    5.9   216     14   853.6    0.00 
 239   13:00   0.26   84.2    16    8.0   245     17   853.5    0.00 
 239   13:10   0.75   84.9    16    4.1   225      9   853.4    0.00 
 239   13:20   0.63   85.6    16    7.9   213     16   853.3    0.00 
 239   13:30   0.91   87.2    14    9.3   222     20   853.1    0.00 
 239   13:40   0.90   86.8    14   12.4   232     22   853.0    0.00 
 239   13:50   0.85   86.5    15   10.5   233     18   852.9    0.00 
 239   14:00   0.35   85.7    15   10.7   235     21   852.9    0.00 
 239   14:10   0.66   85.6    15   11.3   240     19   852.8    0.00 
 239   14:20   0.70   86.7    14    9.6   234     19   852.6    0.00 
 239   14:30   0.68   86.5    14   12.4   233     20   852.5    0.00 
 239   14:40   0.65   87.2    14    9.5   252     18   852.4    0.00 
 239   14:50   0.46   86.2    14   10.1   242     24   852.3    0.00 
 239   15:00   0.72   87.0    14    9.5   261     20   852.2    0.00 
 239   15:10   0.68   87.0    14    9.8   246     19   852.0    0.00 
 239   15:20   0.63   86.9    14   10.7   244     20   852.0    0.00 
 239   15:30   0.58   86.7    14   11.1   259     19   852.0    0.00 
 239   15:40   0.50   86.5    14   10.3   255     18   851.9    0.00 
 239   15:50   0.46   86.6    14   10.6   251     21   851.8    0.00 
 239   16:00   0.48   86.2    14   11.2   252     21   851.9    0.00 
 239   16:10   0.39   85.5    14   13.9   247     25   851.8    0.00 
 239   16:20   0.45   85.8    14   12.6   251     24   851.8    0.00 
 239   16:30   0.40   85.9    14   12.2   260     20   851.8    0.00 
 239   16:40   0.37   85.6    14   10.8   254     20   851.8    0.00 
 239   16:50   0.31   85.0    15   12.4   264     20   851.8    0.00 
 239   17:00   0.18   84.2    16   12.7   262     22   851.7    0.00 
 239   17:10   0.12   83.1    16   13.3   267     26   851.7    0.00 
 239   17:20   0.20   83.5    16   11.7   255     23   851.7    0.00 
 239   17:30   0.11   82.4    17   12.7   263     23   851.8    0.00 
 239   17:40   0.18   82.7    17   11.2   250     20   851.8    0.00 
 239   17:50   0.15   82.3    17   11.2   251     22   851.7    0.00 
 239   18:00   0.08   81.3    18   12.0   242     26   851.7    0.00 
 239   18:10   0.04   80.6    18   11.8   247     24   851.7    0.00 
 239   18:20   0.03   80.0    19   10.0   246     19   851.8    0.00 
 239   18:30   0.01   79.5    20   10.1   257     20   851.8    0.00 
 239   18:40   0.01   79.0    21   10.8   263     21   851.8    0.00 
 239   18:50   0.00   78.6    21    9.8   265     22   851.9    0.00 
 239   19:00   0.00   78.3    21    9.1   275     16   852.1    0.00 
 239   19:10   0.00   77.8    22    5.9   295     12   852.2    0.00 
 239   19:20   0.00   77.1    22    7.0   314     13   852.4    0.00 
 239   19:30   0.00   76.9    22    7.9   331     15   852.5    0.00 
 239   19:40   0.00   76.4    22    7.2   325     13   852.7    0.00 
 239   19:50   0.00   76.2    23    6.9   322     13   852.8    0.00 
 239   20:00   0.00   75.8    23    7.0   328     14   852.9    0.00 
 239   20:10   0.00   75.7    23    6.7   324     12   853.0    0.00 
 239   20:20   0.00   75.3    24    7.3   317     14   853.1    0.00 
 239   20:30   0.00   75.2    24    8.1   317     15   853.2    0.00 
 239   20:40   0.00   75.0    25    8.6   322     15   853.3    0.00 
 239   20:50   0.00   74.4    26    6.4   319     12   853.4    0.00 
 239   21:00   0.00   74.0    26    4.8   329      9   853.5    0.00 
 239   21:10   0.00   73.6    27    5.4   337     12   853.4    0.00 
 239   21:20   0.00   73.6    28    5.9   314     12   853.5    0.00 
 239   21:30   0.00   73.5    28    5.5   303     10   853.5    0.00 
 239   21:40   0.00   73.4    28    5.7   309     11   853.4    0.00 
 239   21:50   0.00   73.2    29    5.9   300     11   853.4    0.00 
 239   22:00   0.00   73.0    29    5.4   306     11   853.4    0.00 
 239   22:10   0.00   73.2    29    5.5   298     12   853.3    0.00 
 239   22:20   0.00   72.7    30    7.3   318     13   853.2    0.00 
 239   22:30   0.00   72.3    30    6.2   308     10   853.2    0.00 
 239   22:40   0.00   72.2    30    6.7   316     12   853.2    0.00 
 239   22:50   0.00   72.0    30    5.1   330     10   853.2    0.00 
 239   23:00   0.00   71.6    31    4.8   326      9   853.2    0.00 
 239   23:10   0.00   71.3    31    5.2   333      9   853.1    0.00 
 239   23:20   0.00   71.5    31    4.3   339      7   853.1    0.00 
 239   23:30   0.00   71.9    30    4.0   340      7   853.2    0.00 
 239   23:40   0.00   71.7    30    4.0   338      7   853.2    0.00 
 239   23:50   0.00   71.8    30    4.0   328      8   853.2    0.00 
 240    0:00   0.00   71.3    31    4.8   349      8   853.2    0.00 
 240    0:10   0.00   70.9    31    3.7   342      7   853.2    0.00 
 240    0:20   0.00   70.6    32    2.5   334      6   853.2    0.00 
 240    0:30   0.00   69.4    33    2.5   329      5   853.2    0.00 
 240    0:40   0.00   69.5    33    4.5   350      8   853.1    0.00 
 240    0:50   0.00   70.1    32    5.2   349      8   853.0    0.00 
 240    1:00   0.00   70.0    33    5.2   347      8   852.9    0.00 
 240    1:10   0.00   69.6    33    4.2   339      8   852.9    0.00 
 240    1:20   0.00   69.0    34    2.8   314      4   852.8    0.00 
 240    1:30   0.00   68.1    35    1.7   318      4   852.8    0.00 
 240    1:40   0.00   67.6    36    1.0   120      2   852.8    0.00 
 240    1:50   0.00   66.8    37    0.8   297      2   852.8    0.00 
 240    2:00   0.00   67.2    36    2.7   299      5   852.8    0.00 
 240    2:10   0.00   66.6    37    3.5   307      5   852.8    0.00 
 240    2:20   0.00   66.0    38    3.2   321      5   852.8    0.00 
 240    2:30   0.00   66.2    38    3.1   324      6   852.8    0.00 
 240    2:40   0.00   66.4    37    3.5   319      6   852.8    0.00 
 240    2:50   0.00   66.6    36    4.5   325      6   852.8    0.00 
 240    3:00   0.00   66.6    36    4.0   334      6   852.8    0.00 
 240    3:10   0.00   66.9    36    3.5   320      6   852.7    0.00 
 240    3:20   0.00   67.0    36    2.8   327      5   852.7    0.00 
 240    3:30   0.00   67.4    35    2.6   330      4   852.6    0.00 
 240    3:40   0.00   67.5    35    1.5   318      3   852.6    0.00 
 240    3:50   0.00   66.7    36    1.2   311      2   852.6    0.00 
 240    4:00   0.00   65.0    38    0.5   220      2   852.6    0.00 
 240    4:10   0.00   64.3    39    2.1    90      4   852.6    0.00 
 240    4:20   0.00   63.4    41    0.1   120      2   852.5    0.00 
 240    4:30   0.00   64.0    40    0.7    41      1   852.5    0.00 
 240    4:40   0.00   64.7    39    0.6   237      2   852.4    0.00 
 240    4:50   0.00   64.7    39    0.7   239      2   852.4    0.00 
 240    5:00   0.00   64.7    39    0.0     0      0   852.4    0.00 
 240    5:10   0.00   64.6    39    0.9   149      2   852.5    0.00 
 240    5:20   0.00   63.5    41    1.1   214      2   852.5    0.00 
 240    5:30   0.00   63.4    41    1.2    12      2   852.6    0.00 
 240    5:40   0.01   64.5    39    1.9   123      3   852.6    0.00 
 240    5:50   0.02   63.2    41    1.6   128      3   852.6    0.00 
 240    6:00   0.04   62.9    42    1.4   143      3   852.6    0.00 
 240    6:10   0.07   62.8    42    1.1   212      2   852.7    0.00 
 240    6:20   0.11   64.0    40    1.3   223      2   852.7    0.00 
 240    6:30   0.12   65.0    39    0.8   262      2   852.8    0.00 
 240    6:40   0.12   65.2    39    0.8   327      2   852.8    0.00 

Return to NNSC graphs page.


Western Regional Climate Center,wrcc@dri.edu